sensor_id;sensor_type;location;lat;lon;timestamp;P1;durP1;ratioP1;P2;durP2;ratioP2
52868;SDS011;39100;53.480;6.158;2023-12-28T00:02:21;3.20;;;1.50;;
52868;SDS011;39100;53.480;6.158;2023-12-28T00:04:46;8.52;;;1.88;;
52868;SDS011;39100;53.480;6.158;2023-12-28T00:07:12;4.50;;;2.53;;
52868;SDS011;39100;53.480;6.158;2023-12-28T00:09:38;3.00;;;1.40;;
52868;SDS011;39100;53.480;6.158;2023-12-28T00:12:04;4.95;;;1.70;;
52868;SDS011;39100;53.480;6.158;2023-12-28T00:14:30;2.20;;;1.42;;
52868;SDS011;39100;53.480;6.158;2023-12-28T00:16:55;2.10;;;1.58;;
52868;SDS011;39100;53.480;6.158;2023-12-28T00:19:21;10.38;;;1.98;;
52868;SDS011;39100;53.480;6.158;2023-12-28T00:21:47;8.65;;;1.50;;
52868;SDS011;39100;53.480;6.158;2023-12-28T00:24:12;8.00;;;2.05;;
52868;SDS011;39100;53.480;6.158;2023-12-28T00:26:39;6.38;;;1.67;;
52868;SDS011;39100;53.480;6.158;2023-12-28T00:29:04;13.13;;;2.25;;
52868;SDS011;39100;53.480;6.158;2023-12-28T00:31:30;8.65;;;1.60;;
52868;SDS011;39100;53.480;6.158;2023-12-28T00:33:55;8.38;;;1.63;;
52868;SDS011;39100;53.480;6.158;2023-12-28T00:36:21;8.10;;;1.98;;
52868;SDS011;39100;53.480;6.158;2023-12-28T00:38:46;7.90;;;2.13;;
52868;SDS011;39100;53.480;6.158;2023-12-28T00:41:12;6.82;;;2.88;;
52868;SDS011;39100;53.480;6.158;2023-12-28T00:43:37;4.28;;;1.10;;
52868;SDS011;39100;53.480;6.158;2023-12-28T00:46:03;9.02;;;1.60;;
52868;SDS011;39100;53.480;6.158;2023-12-28T00:48:28;9.48;;;2.05;;
52868;SDS011;39100;53.480;6.158;2023-12-28T00:50:54;9.40;;;1.67;;
52868;SDS011;39100;53.480;6.158;2023-12-28T00:53:20;6.25;;;1.92;;
52868;SDS011;39100;53.480;6.158;2023-12-28T00:55:45;4.55;;;1.23;;
52868;SDS011;39100;53.480;6.158;2023-12-28T00:58:11;6.07;;;1.25;;
52868;SDS011;39100;53.480;6.158;2023-12-28T01:00:37;10.13;;;2.15;;
52868;SDS011;39100;53.480;6.158;2023-12-28T01:03:02;9.63;;;1.63;;
52868;SDS011;39100;53.480;6.158;2023-12-28T01:05:28;7.53;;;1.58;;
52868;SDS011;39100;53.480;6.158;2023-12-28T01:07:53;14.68;;;1.60;;
52868;SDS011;39100;53.480;6.158;2023-12-28T01:10:19;8.75;;;1.85;;
52868;SDS011;39100;53.480;6.158;2023-12-28T01:12:45;11.07;;;2.13;;
52868;SDS011;39100;53.480;6.158;2023-12-28T01:15:10;10.88;;;1.83;;
52868;SDS011;39100;53.480;6.158;2023-12-28T01:17:36;9.40;;;1.38;;
52868;SDS011;39100;53.480;6.158;2023-12-28T01:20:02;11.80;;;2.80;;
52868;SDS011;39100;53.480;6.158;2023-12-28T01:22:28;10.68;;;2.28;;
52868;SDS011;39100;53.480;6.158;2023-12-28T01:24:54;11.73;;;2.20;;
52868;SDS011;39100;53.480;6.158;2023-12-28T01:27:19;11.90;;;1.85;;
52868;SDS011;39100;53.480;6.158;2023-12-28T01:29:45;8.38;;;1.52;;
52868;SDS011;39100;53.480;6.158;2023-12-28T01:32:10;16.83;;;3.03;;
52868;SDS011;39100;53.480;6.158;2023-12-28T01:34:36;10.80;;;1.20;;
52868;SDS011;39100;53.480;6.158;2023-12-28T01:37:02;16.73;;;2.47;;
52868;SDS011;39100;53.480;6.158;2023-12-28T01:39:27;8.45;;;1.77;;
52868;SDS011;39100;53.480;6.158;2023-12-28T01:41:53;13.20;;;1.98;;
52868;SDS011;39100;53.480;6.158;2023-12-28T01:44:20;14.52;;;1.77;;
52868;SDS011;39100;53.480;6.158;2023-12-28T01:46:45;13.80;;;1.58;;
52868;SDS011;39100;53.480;6.158;2023-12-28T01:49:11;9.10;;;1.58;;
52868;SDS011;39100;53.480;6.158;2023-12-28T01:51:37;8.70;;;1.85;;
52868;SDS011;39100;53.480;6.158;2023-12-28T01:54:04;12.90;;;1.98;;
52868;SDS011;39100;53.480;6.158;2023-12-28T01:56:30;11.90;;;2.30;;
52868;SDS011;39100;53.480;6.158;2023-12-28T01:58:56;16.70;;;2.53;;
52868;SDS011;39100;53.480;6.158;2023-12-28T02:01:21;13.65;;;1.58;;
52868;SDS011;39100;53.480;6.158;2023-12-28T02:03:47;11.68;;;1.98;;
52868;SDS011;39100;53.480;6.158;2023-12-28T02:06:13;9.13;;;1.67;;
52868;SDS011;39100;53.480;6.158;2023-12-28T02:08:42;9.55;;;2.03;;
52868;SDS011;39100;53.480;6.158;2023-12-28T02:11:08;7.75;;;1.52;;
52868;SDS011;39100;53.480;6.158;2023-12-28T02:13:33;14.82;;;1.60;;
52868;SDS011;39100;53.480;6.158;2023-12-28T02:19:09;14.43;;;1.80;;
52868;SDS011;39100;53.480;6.158;2023-12-28T02:22:05;12.50;;;2.05;;
52868;SDS011;39100;53.480;6.158;2023-12-28T02:24:32;6.25;;;2.03;;
52868;SDS011;39100;53.480;6.158;2023-12-28T02:26:58;10.73;;;2.17;;
52868;SDS011;39100;53.480;6.158;2023-12-28T02:29:23;15.77;;;2.13;;
52868;SDS011;39100;53.480;6.158;2023-12-28T02:31:51;13.57;;;2.25;;
52868;SDS011;39100;53.480;6.158;2023-12-28T02:34:27;9.88;;;1.58;;
52868;SDS011;39100;53.480;6.158;2023-12-28T02:36:56;10.18;;;1.98;;
52868;SDS011;39100;53.480;6.158;2023-12-28T02:39:23;9.02;;;1.98;;
52868;SDS011;39100;53.480;6.158;2023-12-28T02:41:50;11.07;;;2.17;;
52868;SDS011;39100;53.480;6.158;2023-12-28T02:44:16;8.95;;;2.10;;
52868;SDS011;39100;53.480;6.158;2023-12-28T02:46:43;11.50;;;1.42;;
52868;SDS011;39100;53.480;6.158;2023-12-28T02:49:09;9.48;;;1.58;;
52868;SDS011;39100;53.480;6.158;2023-12-28T02:51:36;12.07;;;2.42;;
52868;SDS011;39100;53.480;6.158;2023-12-28T02:54:02;8.57;;;2.30;;
52868;SDS011;39100;53.480;6.158;2023-12-28T02:56:28;10.27;;;2.40;;
52868;SDS011;39100;53.480;6.158;2023-12-28T02:58:53;10.57;;;2.15;;
52868;SDS011;39100;53.480;6.158;2023-12-28T03:01:19;17.00;;;3.03;;
52868;SDS011;39100;53.480;6.158;2023-12-28T03:03:44;7.70;;;1.40;;
52868;SDS011;39100;53.480;6.158;2023-12-28T03:06:10;12.07;;;1.92;;
52868;SDS011;39100;53.480;6.158;2023-12-28T03:08:35;9.57;;;1.75;;
52868;SDS011;39100;53.480;6.158;2023-12-28T03:11:01;11.25;;;2.72;;
52868;SDS011;39100;53.480;6.158;2023-12-28T03:13:26;14.70;;;1.80;;
52868;SDS011;39100;53.480;6.158;2023-12-28T03:15:52;9.20;;;1.52;;
52868;SDS011;39100;53.480;6.158;2023-12-28T03:18:18;12.20;;;1.63;;
52868;SDS011;39100;53.480;6.158;2023-12-28T03:20:43;7.55;;;1.90;;
52868;SDS011;39100;53.480;6.158;2023-12-28T03:23:11;19.40;;;2.88;;
52868;SDS011;39100;53.480;6.158;2023-12-28T03:25:37;9.45;;;2.13;;
52868;SDS011;39100;53.480;6.158;2023-12-28T03:28:02;7.90;;;2.20;;
52868;SDS011;39100;53.480;6.158;2023-12-28T03:30:28;10.32;;;1.88;;
52868;SDS011;39100;53.480;6.158;2023-12-28T03:32:54;13.85;;;1.85;;
52868;SDS011;39100;53.480;6.158;2023-12-28T03:35:19;7.40;;;1.63;;
52868;SDS011;39100;53.480;6.158;2023-12-28T03:37:45;13.23;;;1.80;;
52868;SDS011;39100;53.480;6.158;2023-12-28T03:40:11;12.70;;;1.65;;
52868;SDS011;39100;53.480;6.158;2023-12-28T03:42:36;12.98;;;1.73;;
52868;SDS011;39100;53.480;6.158;2023-12-28T03:45:03;7.05;;;1.30;;
52868;SDS011;39100;53.480;6.158;2023-12-28T03:47:29;7.70;;;1.63;;
52868;SDS011;39100;53.480;6.158;2023-12-28T03:49:55;11.38;;;1.30;;
52868;SDS011;39100;53.480;6.158;2023-12-28T03:52:22;11.88;;;2.22;;
52868;SDS011;39100;53.480;6.158;2023-12-28T03:54:48;15.95;;;2.88;;
52868;SDS011;39100;53.480;6.158;2023-12-28T03:57:14;10.38;;;1.65;;
52868;SDS011;39100;53.480;6.158;2023-12-28T03:59:39;12.25;;;1.80;;
52868;SDS011;39100;53.480;6.158;2023-12-28T04:02:05;19.33;;;1.83;;
52868;SDS011;39100;53.480;6.158;2023-12-28T04:04:31;11.40;;;2.60;;
52868;SDS011;39100;53.480;6.158;2023-12-28T04:06:56;9.45;;;1.33;;
52868;SDS011;39100;53.480;6.158;2023-12-28T04:09:22;12.80;;;1.60;;
52868;SDS011;39100;53.480;6.158;2023-12-28T04:11:47;13.18;;;1.92;;
52868;SDS011;39100;53.480;6.158;2023-12-28T04:14:13;5.88;;;2.20;;
52868;SDS011;39100;53.480;6.158;2023-12-28T04:16:39;6.72;;;1.75;;
52868;SDS011;39100;53.480;6.158;2023-12-28T04:19:04;8.40;;;1.73;;
52868;SDS011;39100;53.480;6.158;2023-12-28T04:21:30;9.50;;;1.40;;
52868;SDS011;39100;53.480;6.158;2023-12-28T04:23:55;15.20;;;2.30;;
52868;SDS011;39100;53.480;6.158;2023-12-28T04:26:21;10.25;;;1.83;;
52868;SDS011;39100;53.480;6.158;2023-12-28T04:28:47;9.73;;;1.30;;
52868;SDS011;39100;53.480;6.158;2023-12-28T04:31:12;14.13;;;2.67;;
52868;SDS011;39100;53.480;6.158;2023-12-28T04:33:38;6.88;;;1.30;;
52868;SDS011;39100;53.480;6.158;2023-12-28T04:36:03;16.25;;;2.03;;
52868;SDS011;39100;53.480;6.158;2023-12-28T04:38:30;9.13;;;1.80;;
52868;SDS011;39100;53.480;6.158;2023-12-28T04:40:56;14.38;;;1.77;;
52868;SDS011;39100;53.480;6.158;2023-12-28T04:43:22;11.85;;;1.48;;
52868;SDS011;39100;53.480;6.158;2023-12-28T04:45:51;8.65;;;1.30;;
52868;SDS011;39100;53.480;6.158;2023-12-28T04:48:16;6.47;;;1.85;;
52868;SDS011;39100;53.480;6.158;2023-12-28T04:50:46;13.20;;;1.60;;
52868;SDS011;39100;53.480;6.158;2023-12-28T04:53:15;11.15;;;2.47;;
52868;SDS011;39100;53.480;6.158;2023-12-28T04:55:41;7.82;;;1.30;;
52868;SDS011;39100;53.480;6.158;2023-12-28T04:58:06;9.90;;;1.50;;
52868;SDS011;39100;53.480;6.158;2023-12-28T05:00:32;10.25;;;1.65;;
52868;SDS011;39100;53.480;6.158;2023-12-28T05:02:57;14.27;;;2.17;;
52868;SDS011;39100;53.480;6.158;2023-12-28T05:05:23;15.15;;;2.55;;
52868;SDS011;39100;53.480;6.158;2023-12-28T05:07:48;13.25;;;1.30;;
52868;SDS011;39100;53.480;6.158;2023-12-28T05:10:14;20.15;;;2.97;;
52868;SDS011;39100;53.480;6.158;2023-12-28T05:12:40;12.10;;;3.60;;
52868;SDS011;39100;53.480;6.158;2023-12-28T05:15:05;9.95;;;2.05;;
52868;SDS011;39100;53.480;6.158;2023-12-28T05:17:31;17.95;;;2.40;;
52868;SDS011;39100;53.480;6.158;2023-12-28T05:19:57;18.63;;;2.25;;
52868;SDS011;39100;53.480;6.158;2023-12-28T05:22:22;16.30;;;2.80;;
52868;SDS011;39100;53.480;6.158;2023-12-28T05:24:48;11.45;;;1.90;;
52868;SDS011;39100;53.480;6.158;2023-12-28T05:27:13;14.13;;;2.78;;
52868;SDS011;39100;53.480;6.158;2023-12-28T05:29:39;13.30;;;2.40;;
52868;SDS011;39100;53.480;6.158;2023-12-28T05:32:05;14.57;;;1.90;;
52868;SDS011;39100;53.480;6.158;2023-12-28T05:34:30;13.65;;;1.98;;
52868;SDS011;39100;53.480;6.158;2023-12-28T05:36:56;8.73;;;1.77;;
52868;SDS011;39100;53.480;6.158;2023-12-28T05:39:22;14.80;;;1.95;;
52868;SDS011;39100;53.480;6.158;2023-12-28T05:41:47;12.77;;;1.85;;
52868;SDS011;39100;53.480;6.158;2023-12-28T05:44:15;12.65;;;2.97;;
52868;SDS011;39100;53.480;6.158;2023-12-28T05:46:41;19.23;;;2.67;;
52868;SDS011;39100;53.480;6.158;2023-12-28T05:49:07;18.00;;;2.70;;
52868;SDS011;39100;53.480;6.158;2023-12-28T05:51:38;15.45;;;3.38;;
52868;SDS011;39100;53.480;6.158;2023-12-28T05:54:07;14.95;;;2.83;;
52868;SDS011;39100;53.480;6.158;2023-12-28T05:56:33;13.88;;;2.35;;
52868;SDS011;39100;53.480;6.158;2023-12-28T05:58:59;12.52;;;2.30;;
52868;SDS011;39100;53.480;6.158;2023-12-28T06:01:25;20.30;;;2.78;;
52868;SDS011;39100;53.480;6.158;2023-12-28T06:03:51;14.80;;;2.35;;
52868;SDS011;39100;53.480;6.158;2023-12-28T06:06:17;17.67;;;2.53;;
52868;SDS011;39100;53.480;6.158;2023-12-28T06:08:43;13.00;;;3.20;;
52868;SDS011;39100;53.480;6.158;2023-12-28T06:11:09;17.48;;;3.10;;
52868;SDS011;39100;53.480;6.158;2023-12-28T06:13:35;17.75;;;2.63;;
52868;SDS011;39100;53.480;6.158;2023-12-28T06:16:00;16.00;;;2.92;;
52868;SDS011;39100;53.480;6.158;2023-12-28T06:18:26;13.65;;;2.22;;
52868;SDS011;39100;53.480;6.158;2023-12-28T06:20:52;18.90;;;2.47;;
52868;SDS011;39100;53.480;6.158;2023-12-28T06:23:17;15.35;;;3.60;;
52868;SDS011;39100;53.480;6.158;2023-12-28T06:25:43;17.33;;;2.90;;
52868;SDS011;39100;53.480;6.158;2023-12-28T06:28:08;15.82;;;3.60;;
52868;SDS011;39100;53.480;6.158;2023-12-28T06:30:34;11.65;;;1.70;;
52868;SDS011;39100;53.480;6.158;2023-12-28T06:32:59;14.68;;;1.98;;
52868;SDS011;39100;53.480;6.158;2023-12-28T06:35:25;12.23;;;2.53;;
52868;SDS011;39100;53.480;6.158;2023-12-28T06:37:51;14.27;;;2.17;;
52868;SDS011;39100;53.480;6.158;2023-12-28T06:40:16;22.67;;;3.42;;
52868;SDS011;39100;53.480;6.158;2023-12-28T06:42:42;14.20;;;2.15;;
52868;SDS011;39100;53.480;6.158;2023-12-28T06:45:08;13.40;;;2.20;;
52868;SDS011;39100;53.480;6.158;2023-12-28T06:47:34;17.23;;;4.30;;
52868;SDS011;39100;53.480;6.158;2023-12-28T06:50:00;10.68;;;2.78;;
52868;SDS011;39100;53.480;6.158;2023-12-28T06:52:26;18.65;;;3.10;;
52868;SDS011;39100;53.480;6.158;2023-12-28T06:54:51;18.77;;;2.67;;
52868;SDS011;39100;53.480;6.158;2023-12-28T06:57:18;19.92;;;3.10;;
52868;SDS011;39100;53.480;6.158;2023-12-28T06:59:43;19.02;;;3.08;;
52868;SDS011;39100;53.480;6.158;2023-12-28T07:02:09;14.77;;;2.25;;
52868;SDS011;39100;53.480;6.158;2023-12-28T07:04:35;13.07;;;2.72;;
52868;SDS011;39100;53.480;6.158;2023-12-28T07:07:00;17.15;;;2.72;;
52868;SDS011;39100;53.480;6.158;2023-12-28T07:09:26;19.50;;;2.95;;
52868;SDS011;39100;53.480;6.158;2023-12-28T07:11:51;17.73;;;3.92;;
52868;SDS011;39100;53.480;6.158;2023-12-28T07:14:17;21.20;;;2.58;;
52868;SDS011;39100;53.480;6.158;2023-12-28T07:16:42;21.38;;;3.95;;
52868;SDS011;39100;53.480;6.158;2023-12-28T07:19:08;18.48;;;2.58;;
52868;SDS011;39100;53.480;6.158;2023-12-28T07:21:33;12.82;;;2.33;;
52868;SDS011;39100;53.480;6.158;2023-12-28T07:23:59;14.32;;;2.35;;
52868;SDS011;39100;53.480;6.158;2023-12-28T07:26:24;15.38;;;2.85;;
52868;SDS011;39100;53.480;6.158;2023-12-28T07:28:50;13.35;;;2.83;;
52868;SDS011;39100;53.480;6.158;2023-12-28T07:31:23;19.77;;;4.03;;
52868;SDS011;39100;53.480;6.158;2023-12-28T07:33:52;15.40;;;2.72;;
52868;SDS011;39100;53.480;6.158;2023-12-28T07:36:19;21.25;;;2.88;;
52868;SDS011;39100;53.480;6.158;2023-12-28T07:38:44;13.38;;;2.28;;
52868;SDS011;39100;53.480;6.158;2023-12-28T07:41:10;10.05;;;2.67;;
52868;SDS011;39100;53.480;6.158;2023-12-28T07:43:36;13.82;;;2.90;;
52868;SDS011;39100;53.480;6.158;2023-12-28T07:46:02;16.40;;;2.75;;
52868;SDS011;39100;53.480;6.158;2023-12-28T07:48:27;15.82;;;2.75;;
52868;SDS011;39100;53.480;6.158;2023-12-28T07:50:55;13.02;;;2.42;;
52868;SDS011;39100;53.480;6.158;2023-12-28T07:53:28;11.45;;;3.15;;
52868;SDS011;39100;53.480;6.158;2023-12-28T07:55:54;13.40;;;2.42;;
52868;SDS011;39100;53.480;6.158;2023-12-28T07:58:20;18.05;;;2.55;;
52868;SDS011;39100;53.480;6.158;2023-12-28T08:00:46;21.40;;;2.65;;
52868;SDS011;39100;53.480;6.158;2023-12-28T08:03:12;16.50;;;3.08;;
52868;SDS011;39100;53.480;6.158;2023-12-28T08:05:40;18.13;;;2.88;;
52868;SDS011;39100;53.480;6.158;2023-12-28T08:08:06;25.90;;;3.35;;
52868;SDS011;39100;53.480;6.158;2023-12-28T08:10:31;10.70;;;2.00;;
52868;SDS011;39100;53.480;6.158;2023-12-28T08:12:57;20.83;;;3.83;;
52868;SDS011;39100;53.480;6.158;2023-12-28T08:15:23;14.68;;;3.58;;
52868;SDS011;39100;53.480;6.158;2023-12-28T08:17:48;18.65;;;3.88;;
52868;SDS011;39100;53.480;6.158;2023-12-28T08:20:14;18.20;;;3.72;;
52868;SDS011;39100;53.480;6.158;2023-12-28T08:22:39;22.83;;;3.85;;
52868;SDS011;39100;53.480;6.158;2023-12-28T08:25:05;18.23;;;3.83;;
52868;SDS011;39100;53.480;6.158;2023-12-28T08:27:31;18.45;;;3.35;;
52868;SDS011;39100;53.480;6.158;2023-12-28T08:30:00;22.88;;;3.10;;
52868;SDS011;39100;53.480;6.158;2023-12-28T08:32:25;18.08;;;3.55;;
52868;SDS011;39100;53.480;6.158;2023-12-28T08:34:51;15.27;;;3.78;;
52868;SDS011;39100;53.480;6.158;2023-12-28T08:37:16;23.55;;;4.07;;
52868;SDS011;39100;53.480;6.158;2023-12-28T08:39:42;22.58;;;3.50;;
52868;SDS011;39100;53.480;6.158;2023-12-28T08:42:08;36.13;;;4.45;;
52868;SDS011;39100;53.480;6.158;2023-12-28T08:44:33;21.70;;;3.50;;
52868;SDS011;39100;53.480;6.158;2023-12-28T08:47:00;18.55;;;2.40;;
52868;SDS011;39100;53.480;6.158;2023-12-28T08:49:27;20.83;;;4.10;;
52868;SDS011;39100;53.480;6.158;2023-12-28T08:51:52;23.98;;;4.85;;
52868;SDS011;39100;53.480;6.158;2023-12-28T08:54:18;21.13;;;3.40;;
52868;SDS011;39100;53.480;6.158;2023-12-28T08:56:43;15.93;;;4.38;;
52868;SDS011;39100;53.480;6.158;2023-12-28T08:59:09;23.27;;;4.22;;
52868;SDS011;39100;53.480;6.158;2023-12-28T09:01:35;17.85;;;3.10;;
52868;SDS011;39100;53.480;6.158;2023-12-28T09:04:00;17.50;;;4.13;;
52868;SDS011;39100;53.480;6.158;2023-12-28T09:06:26;17.02;;;3.40;;
52868;SDS011;39100;53.480;6.158;2023-12-28T09:08:52;19.80;;;3.65;;
52868;SDS011;39100;53.480;6.158;2023-12-28T09:11:18;16.98;;;4.25;;
52868;SDS011;39100;53.480;6.158;2023-12-28T09:13:45;20.30;;;3.88;;
52868;SDS011;39100;53.480;6.158;2023-12-28T09:16:11;27.40;;;4.72;;
52868;SDS011;39100;53.480;6.158;2023-12-28T09:18:38;22.23;;;3.58;;
52868;SDS011;39100;53.480;6.158;2023-12-28T09:21:05;27.75;;;3.15;;
52868;SDS011;39100;53.480;6.158;2023-12-28T09:23:31;26.73;;;5.10;;
52868;SDS011;39100;53.480;6.158;2023-12-28T09:25:58;20.17;;;3.38;;
52868;SDS011;39100;53.480;6.158;2023-12-28T09:28:24;21.52;;;4.53;;
52868;SDS011;39100;53.480;6.158;2023-12-28T09:30:50;18.33;;;3.53;;
52868;SDS011;39100;53.480;6.158;2023-12-28T09:33:16;22.40;;;4.70;;
52868;SDS011;39100;53.480;6.158;2023-12-28T09:35:41;21.40;;;4.22;;
52868;SDS011;39100;53.480;6.158;2023-12-28T09:38:07;14.18;;;3.20;;
52868;SDS011;39100;53.480;6.158;2023-12-28T09:40:34;19.55;;;3.60;;
52868;SDS011;39100;53.480;6.158;2023-12-28T09:45:55;20.17;;;3.20;;
52868;SDS011;39100;53.480;6.158;2023-12-28T09:48:22;14.90;;;2.47;;
52868;SDS011;39100;53.480;6.158;2023-12-28T09:50:51;20.98;;;4.05;;
52868;SDS011;39100;53.480;6.158;2023-12-28T09:53:20;18.38;;;3.95;;
52868;SDS011;39100;53.480;6.158;2023-12-28T09:55:49;15.77;;;3.25;;
52868;SDS011;39100;53.480;6.158;2023-12-28T09:58:19;16.70;;;4.07;;
52868;SDS011;39100;53.480;6.158;2023-12-28T10:00:45;28.75;;;4.78;;
52868;SDS011;39100;53.480;6.158;2023-12-28T10:03:13;20.27;;;3.65;;
52868;SDS011;39100;53.480;6.158;2023-12-28T10:05:42;22.42;;;4.07;;
52868;SDS011;39100;53.480;6.158;2023-12-28T10:08:15;19.33;;;3.45;;
52868;SDS011;39100;53.480;6.158;2023-12-28T10:10:42;21.58;;;4.38;;
52868;SDS011;39100;53.480;6.158;2023-12-28T10:13:10;21.33;;;2.83;;
52868;SDS011;39100;53.480;6.158;2023-12-28T10:15:36;19.75;;;3.55;;
52868;SDS011;39100;53.480;6.158;2023-12-28T10:18:03;15.77;;;3.25;;
52868;SDS011;39100;53.480;6.158;2023-12-28T10:20:31;18.42;;;2.42;;
52868;SDS011;39100;53.480;6.158;2023-12-28T10:22:58;14.30;;;4.20;;
52868;SDS011;39100;53.480;6.158;2023-12-28T10:25:24;19.55;;;2.90;;
52868;SDS011;39100;53.480;6.158;2023-12-28T10:27:50;16.17;;;2.63;;
52868;SDS011;39100;53.480;6.158;2023-12-28T10:30:17;15.20;;;2.72;;
52868;SDS011;39100;53.480;6.158;2023-12-28T10:32:44;19.27;;;2.97;;
52868;SDS011;39100;53.480;6.158;2023-12-28T10:35:10;13.35;;;2.38;;
52868;SDS011;39100;53.480;6.158;2023-12-28T10:37:36;16.30;;;2.60;;
52868;SDS011;39100;53.480;6.158;2023-12-28T10:40:06;18.25;;;2.97;;
52868;SDS011;39100;53.480;6.158;2023-12-28T10:43:08;16.17;;;2.78;;
52868;SDS011;39100;53.480;6.158;2023-12-28T10:45:29;18.90;;;3.47;;
52868;SDS011;39100;53.480;6.158;2023-12-28T10:48:09;15.25;;;2.42;;
52868;SDS011;39100;53.480;6.158;2023-12-28T10:50:48;20.50;;;2.78;;
52868;SDS011;39100;53.480;6.158;2023-12-28T10:58:53;14.68;;;3.30;;
52868;SDS011;39100;53.480;6.158;2023-12-28T11:01:31;18.60;;;2.97;;
52868;SDS011;39100;53.480;6.158;2023-12-28T11:04:46;15.98;;;3.00;;
52868;SDS011;39100;53.480;6.158;2023-12-28T11:06:54;19.73;;;4.15;;
52868;SDS011;39100;53.480;6.158;2023-12-28T11:09:21;19.83;;;3.63;;
52868;SDS011;39100;53.480;6.158;2023-12-28T11:11:49;13.65;;;2.92;;
52868;SDS011;39100;53.480;6.158;2023-12-28T11:14:17;16.70;;;3.05;;
52868;SDS011;39100;53.480;6.158;2023-12-28T11:16:43;14.10;;;3.08;;
52868;SDS011;39100;53.480;6.158;2023-12-28T11:19:09;12.77;;;2.92;;
52868;SDS011;39100;53.480;6.158;2023-12-28T11:21:36;16.90;;;3.78;;
52868;SDS011;39100;53.480;6.158;2023-12-28T11:24:03;24.00;;;3.30;;
52868;SDS011;39100;53.480;6.158;2023-12-28T11:26:30;17.02;;;3.13;;
52868;SDS011;39100;53.480;6.158;2023-12-28T11:29:02;20.83;;;3.92;;
52868;SDS011;39100;53.480;6.158;2023-12-28T11:31:31;17.10;;;3.90;;
52868;SDS011;39100;53.480;6.158;2023-12-28T11:33:59;15.82;;;2.95;;
52868;SDS011;39100;53.480;6.158;2023-12-28T11:36:40;19.55;;;2.70;;
52868;SDS011;39100;53.480;6.158;2023-12-28T11:39:11;17.25;;;2.55;;
52868;SDS011;39100;53.480;6.158;2023-12-28T11:41:43;20.50;;;4.57;;
52868;SDS011;39100;53.480;6.158;2023-12-28T11:44:09;15.55;;;2.92;;
52868;SDS011;39100;53.480;6.158;2023-12-28T11:46:36;16.27;;;3.05;;
52868;SDS011;39100;53.480;6.158;2023-12-28T11:49:08;17.95;;;3.03;;
52868;SDS011;39100;53.480;6.158;2023-12-28T11:54:00;15.38;;;2.42;;
52868;SDS011;39100;53.480;6.158;2023-12-28T11:56:28;21.90;;;4.00;;
52868;SDS011;39100;53.480;6.158;2023-12-28T11:58:54;20.00;;;2.70;;
52868;SDS011;39100;53.480;6.158;2023-12-28T12:01:20;19.27;;;3.10;;
52868;SDS011;39100;53.480;6.158;2023-12-28T12:03:45;17.05;;;2.80;;
52868;SDS011;39100;53.480;6.158;2023-12-28T12:06:11;10.57;;;2.42;;
52868;SDS011;39100;53.480;6.158;2023-12-28T12:08:36;15.15;;;2.47;;
52868;SDS011;39100;53.480;6.158;2023-12-28T12:11:03;18.67;;;3.53;;
52868;SDS011;39100;53.480;6.158;2023-12-28T12:13:30;22.55;;;3.60;;
52868;SDS011;39100;53.480;6.158;2023-12-28T12:15:56;17.83;;;3.85;;
52868;SDS011;39100;53.480;6.158;2023-12-28T12:18:23;16.45;;;2.97;;
52868;SDS011;39100;53.480;6.158;2023-12-28T12:20:49;16.98;;;3.67;;
52868;SDS011;39100;53.480;6.158;2023-12-28T12:23:15;16.40;;;3.28;;
52868;SDS011;39100;53.480;6.158;2023-12-28T12:25:41;16.92;;;2.97;;
52868;SDS011;39100;53.480;6.158;2023-12-28T12:28:07;23.45;;;4.28;;
52868;SDS011;39100;53.480;6.158;2023-12-28T12:30:33;22.40;;;2.75;;
52868;SDS011;39100;53.480;6.158;2023-12-28T12:32:59;18.42;;;3.40;;
52868;SDS011;39100;53.480;6.158;2023-12-28T12:35:25;12.77;;;2.58;;
52868;SDS011;39100;53.480;6.158;2023-12-28T12:37:51;14.93;;;3.30;;
52868;SDS011;39100;53.480;6.158;2023-12-28T12:40:17;20.02;;;3.70;;
52868;SDS011;39100;53.480;6.158;2023-12-28T12:42:55;19.55;;;2.22;;
52868;SDS011;39100;53.480;6.158;2023-12-28T12:45:21;17.05;;;2.78;;
52868;SDS011;39100;53.480;6.158;2023-12-28T12:47:47;17.05;;;2.88;;
52868;SDS011;39100;53.480;6.158;2023-12-28T12:50:13;23.30;;;3.63;;
52868;SDS011;39100;53.480;6.158;2023-12-28T12:52:40;16.95;;;2.97;;
52868;SDS011;39100;53.480;6.158;2023-12-28T12:55:10;16.13;;;2.90;;
52868;SDS011;39100;53.480;6.158;2023-12-28T12:57:36;20.48;;;3.63;;
52868;SDS011;39100;53.480;6.158;2023-12-28T13:00:03;13.90;;;3.15;;
52868;SDS011;39100;53.480;6.158;2023-12-28T13:02:33;18.15;;;2.70;;
52868;SDS011;39100;53.480;6.158;2023-12-28T13:04:59;22.45;;;2.65;;
52868;SDS011;39100;53.480;6.158;2023-12-28T13:07:24;21.23;;;3.63;;
52868;SDS011;39100;53.480;6.158;2023-12-28T13:09:50;20.45;;;2.55;;
52868;SDS011;39100;53.480;6.158;2023-12-28T13:12:16;21.98;;;3.15;;
52868;SDS011;39100;53.480;6.158;2023-12-28T13:14:42;12.73;;;2.42;;
52868;SDS011;39100;53.480;6.158;2023-12-28T13:17:09;14.02;;;2.35;;
52868;SDS011;39100;53.480;6.158;2023-12-28T13:19:35;17.08;;;3.47;;
52868;SDS011;39100;53.480;6.158;2023-12-28T13:22:01;20.05;;;3.17;;
52868;SDS011;39100;53.480;6.158;2023-12-28T13:24:26;14.60;;;3.65;;
52868;SDS011;39100;53.480;6.158;2023-12-28T13:26:52;18.58;;;3.35;;
52868;SDS011;39100;53.480;6.158;2023-12-28T13:29:17;11.98;;;2.70;;
52868;SDS011;39100;53.480;6.158;2023-12-28T13:31:43;20.23;;;3.10;;
52868;SDS011;39100;53.480;6.158;2023-12-28T13:34:10;16.70;;;3.05;;
52868;SDS011;39100;53.480;6.158;2023-12-28T13:36:35;12.63;;;2.75;;
52868;SDS011;39100;53.480;6.158;2023-12-28T13:39:02;8.80;;;2.28;;
52868;SDS011;39100;53.480;6.158;2023-12-28T13:41:27;14.43;;;3.10;;
52868;SDS011;39100;53.480;6.158;2023-12-28T13:43:53;16.83;;;1.75;;
52868;SDS011;39100;53.480;6.158;2023-12-28T13:48:50;13.27;;;2.15;;
52868;SDS011;39100;53.480;6.158;2023-12-28T13:51:16;14.90;;;2.72;;
52868;SDS011;39100;53.480;6.158;2023-12-28T13:53:41;12.18;;;2.35;;
52868;SDS011;39100;53.480;6.158;2023-12-28T13:56:07;19.58;;;2.78;;
52868;SDS011;39100;53.480;6.158;2023-12-28T13:58:33;15.25;;;2.20;;
52868;SDS011;39100;53.480;6.158;2023-12-28T14:00:59;17.05;;;2.95;;
52868;SDS011;39100;53.480;6.158;2023-12-28T14:03:25;15.00;;;3.42;;
52868;SDS011;39100;53.480;6.158;2023-12-28T14:05:50;15.98;;;3.15;;
52868;SDS011;39100;53.480;6.158;2023-12-28T14:08:16;12.68;;;2.65;;
52868;SDS011;39100;53.480;6.158;2023-12-28T14:10:42;16.55;;;2.38;;
52868;SDS011;39100;53.480;6.158;2023-12-28T14:13:07;20.92;;;2.88;;
52868;SDS011;39100;53.480;6.158;2023-12-28T14:15:33;16.10;;;2.85;;
52868;SDS011;39100;53.480;6.158;2023-12-28T14:17:58;14.55;;;2.47;;
52868;SDS011;39100;53.480;6.158;2023-12-28T14:20:24;16.40;;;3.10;;
52868;SDS011;39100;53.480;6.158;2023-12-28T14:22:50;15.60;;;1.88;;
52868;SDS011;39100;53.480;6.158;2023-12-28T14:25:15;15.70;;;2.03;;
52868;SDS011;39100;53.480;6.158;2023-12-28T14:27:41;10.88;;;1.83;;
52868;SDS011;39100;53.480;6.158;2023-12-28T14:30:08;11.63;;;2.58;;
52868;SDS011;39100;53.480;6.158;2023-12-28T14:32:35;13.10;;;2.65;;
52868;SDS011;39100;53.480;6.158;2023-12-28T14:35:01;8.65;;;1.65;;
52868;SDS011;39100;53.480;6.158;2023-12-28T14:37:27;12.93;;;2.20;;
52868;SDS011;39100;53.480;6.158;2023-12-28T14:39:52;13.50;;;2.88;;
52868;SDS011;39100;53.480;6.158;2023-12-28T14:42:18;12.93;;;1.85;;
52868;SDS011;39100;53.480;6.158;2023-12-28T14:44:44;14.63;;;2.42;;
52868;SDS011;39100;53.480;6.158;2023-12-28T14:47:09;17.23;;;2.72;;
52868;SDS011;39100;53.480;6.158;2023-12-28T14:49:35;12.00;;;2.15;;